Latest Coastal Weather Observations for Flinders Reef

IDQ60701

Issued at 12:42 am EST Monday 2 February 2015 (issued every 10 minutes, with the page automatically refreshed every 10 minutes)

About coastal observations | Map of coastal stations | Coastal observations for QLD | Marine services | Other Formats
Station Details ID: 200783 Name: FLINDERS REEF Lat: -17.72 Lon: 148.45 Height: 2.6 m
Data from the previous 72 hours. | See also: Recent months at Flinders Reef
Date/Time
EST
Temp

°C
Wind Pressure Rain
since 9am
mm
Weather Cloud Vis
km
Sea
Height
m
Swell
Dir
 
Speed
knots
Gust
knots
hPa Trend Height
m
Period
s
Dir
02/12:30am - N 9 11 1007.0 - - - - - - - - -
02/12:24am - N 9 - 1006.9 - - - - - - - - -
02/12:00am - NNW 10 11 1007.1 - - - - - - - - -
 
Date/Time
EST
Temp

°C
Wind Pressure Rain
since 9am
mm
Weather Cloud Vis
km
Sea
Height
m
Swell
Dir
 
Speed
knots
Gust
knots
hPa Trend Height
m
Period
s
Dir
01/11:30pm - NNW 9 11 1007.4 - - - - - - - - -
01/11:24pm - NW 9 - 1007.3 - - - - - - - - -
01/11:00pm - NW 8 8 1007.5 - - - - - - - - -
01/10:30pm - WNW 7 8 1007.5 - - - - - - - - -
01/10:24pm - WNW 7 - 1007.4 - - - - - - - - -
01/10:00pm - WSW 6 7 1007.4 - - - - - - - - -
01/09:30pm - WSW 5 6 1007.2 - - - - - - - - -
01/09:24pm - WSW 5 - 1007.1 - - - - - - - - -
01/09:00pm - WSW 4 5 1006.8 - - - - - - - - -
01/08:30pm - CALM 0 0 1006.8 - - - - - - - - -
01/08:24pm - CALM 0 - 1006.7 - - - - - - - - -
01/08:00pm - WSW 3 4 1006.6 - - - - - - - - -
01/07:30pm - WSW 4 5 1006.5 - - - - - - - - -
01/07:24pm - WSW 5 - 1006.4 - - - - - - - - -
01/07:00pm - SW 5 7 1006.4 - - - - - - - - -
01/06:30pm - SW 6 8 1006.2 - - - - - - - - -
01/06:24pm - SW 6 - 1006.1 - - - - - - - - -
01/06:00pm - WSW 6 8 1006.0 - - - - - - - - -
01/05:30pm - WSW 7 9 1005.9 - - - - - - - - -
01/05:24pm - WSW 7 - 1005.8 - - - - - - - - -
01/05:00pm - WSW 8 9 1005.8 - - - - - - - - -
01/04:30pm - SW 8 10 1005.7 - - - - - - - - -
01/04:24pm - SW 8 - 1005.5 - - - - - - - - -
01/04:00pm - SW 9 11 1005.6 - - - - - - - - -
01/03:30pm - SW 8 10 1005.5 - - - - - - - - -
01/03:24pm - SW 8 - 1005.4 - - - - - - - - -
01/03:00pm - WSW 9 11 1005.6 - - - - - - - - -
01/02:30pm - WSW 9 10 1005.8 - - - - - - - - -
01/02:24pm - WSW 9 - 1005.8 - - - - - - - - -
01/02:00pm - WSW 10 12 1006.2 - - - - - - - - -
01/01:30pm - WSW 9 10 1006.3 - - - - - - - - -
01/01:24pm - WSW 9 - 1006.2 - - - - - - - - -
01/01:00pm - WSW 10 12 1006.5 - - - - - - - - -
01/12:30pm - SW 9 11 1006.8 - - - - - - - - -
01/12:24pm - WSW 8 - 1006.8 - - - - - - - - -
01/12:00pm - W 8 11 1007.2 - - - - - - - - -
01/11:30am - WNW 7 8 1007.5 - - - - - - - - -
01/11:24am - WNW 7 - 1007.5 - - - - - - - - -
01/11:00am - NW 7 8 1008.0 - - - - - - - - -
01/10:30am - NW 6 8 1008.2 - - - - - - - - -
01/10:24am - NW 7 - 1008.2 - - - - - - - - -
01/10:00am - NW 5 7 1008.2 - - - - - - - - -
01/09:30am - NW 5 6 1008.1 - - - - - - - - -
01/09:24am - NW 5 - 1008.0 - - - - - - - - -
01/09:00am - NW 5 7 1008.0 - - - - - - - - -
01/08:30am - NW 5 6 1008.0 - - - - - - - - -
01/08:24am - NW 6 - 1007.8 - - - - - - - - -
01/08:00am - NW 5 7 1007.8 - - - - - - - - -
01/07:30am - NW 5 6 1007.4 - - - - - - - - -
01/07:24am - NW 4 - 1007.3 - - - - - - - - -
01/07:00am - W 4 5 1007.2 - - - - - - - - -
01/06:30am - WSW 5 6 1006.9 - - - - - - - - -
01/06:24am - SW 5 - 1006.8 - - - - - - - - -
01/06:00am - SSW 4 7 1006.7 - - - - - - - - -
01/05:30am - ENE 1 3 1006.4 - - - - - - - - -
01/05:24am - E 1 - 1006.3 - - - - - - - - -
01/05:00am - E 3 4 1005.9 - - - - - - - - -
01/04:30am - CALM 0 0 1005.9 - - - - - - - - -
01/04:24am - CALM 0 - 1005.8 - - - - - - - - -
01/04:00am - CALM 0 0 1005.9 - - - - - - - - -
01/03:30am - CALM 0 0 1005.9 - - - - - - - - -
01/03:24am - CALM 0 - 1005.8 - - - - - - - - -
01/03:00am - CALM 0 3 1005.9 - - - - - - - - -
01/02:30am - E 4 5 1005.8 - - - - - - - - -
01/02:24am - E 4 - 1005.8 - - - - - - - - -
01/02:00am - E 3 5 1006.2 - - - - - - - - -
01/01:30am - E 4 5 1006.3 - - - - - - - - -
01/01:24am - E 5 - 1006.2 - - - - - - - - -
01/01:00am - E 5 6 1006.6 - - - - - - - - -
01/12:30am - E 4 6 1007.1 - - - - - - - - -
01/12:24am - E 5 - 1007.0 - - - - - - - - -
01/12:00am - E 6 7 1007.4 - - - - - - - - -
 
Date/Time
EST
Temp

°C
Wind Pressure Rain
since 9am
mm
Weather Cloud Vis
km
Sea
Height
m
Swell
Dir
 
Speed
knots
Gust
knots
hPa Trend Height
m
Period
s
Dir
31/11:30pm - E 7 8 1007.6 - - - - - - - - -
31/11:24pm - E 7 - 1007.6 - - - - - - - - -
31/11:00pm - E 6 8 1007.8 - - - - - - - - -
31/10:30pm - E 7 8 1008.0 - - - - - - - - -
31/10:24pm - E 7 - 1008.0 - - - - - - - - -
31/10:00pm - ESE 8 9 1007.8 - - - - - - - - -
31/09:30pm - ESE 8 10 1007.5 - - - - - - - - -
31/09:24pm - ESE 9 - 1007.4 - - - - - - - - -
31/09:00pm - ESE 9 11 1007.6 - - - - - - - - -
31/08:30pm - ESE 9 11 1007.7 - - - - - - - - -
31/08:24pm - ESE 10 - 1007.5 - - - - - - - - -
31/08:00pm - ESE 11 13 1007.6 - - - - - - - - -
31/07:30pm - SE 12 14 1006.9 - - - - - - - - -
31/07:24pm - SE 12 - 1006.7 - - - - - - - - -
31/07:00pm - SE 10 13 1006.7 - - - - - - - - -
31/06:30pm - SSE 12 14 1006.5 - - - - - - - - -
31/06:24pm - SSE 12 - 1006.3 - - - - - - - - -
31/06:00pm - SSE 11 13 1006.3 - - - - - - - - -
31/05:30pm - SSE 12 14 1005.7 - - - - - - - - -
31/05:24pm - SSE 12 - 1005.4 - - - - - - - - -
31/05:00pm - SSE 12 15 1005.3 - - - - - - - - -
31/04:30pm - SSE 12 14 1005.1 - - - - - - - - -
31/04:24pm - SSE 11 - 1005.0 - - - - - - - - -
31/04:00pm - SSE 11 14 1005.1 - - - - - - - - -
31/03:30pm - SSE 12 14 1005.3 - - - - - - - - -
31/03:24pm - SSE 11 - 1005.3 - - - - - - - - -
31/03:00pm - SSE 11 13 1005.6 - - - - - - - - -
31/02:30pm - SSE 12 14 1005.7 - - - - - - - - -
31/02:24pm - SSE 12 - 1005.7 - - - - - - - - -
31/02:00pm - SSE 11 13 1006.0 - - - - - - - - -
31/01:30pm - SSE 11 13 1006.0 - - - - - - - - -
31/01:24pm - SSE 11 - 1005.9 - - - - - - - - -
31/01:00pm - SE 10 11 1006.2 - - - - - - - - -
31/12:30pm - SE 8 10 1006.5 - - - - - - - - -
31/12:24pm - SE 9 - 1006.5 - - - - - - - - -
31/12:00pm - SE 10 11 1006.8 - - - - - - - - -
31/11:30am - S 6 8 1007.0 - - - - - - - - -
31/11:24am - S 5 - 1006.9 - - - - - - - - -
31/11:00am - S 5 6 1007.3 - - - - - - - - -
31/10:30am - S 10 14 1007.7 - - - - - - - - -
31/10:24am - S 13 - 1007.6 - - - - - - - - -
31/10:00am - SE 6 8 1007.8 - - - - - - - - -
31/09:30am - SE 6 7 1008.1 - - - - - - - - -
31/09:24am - SE 6 - 1007.9 - - - - - - - - -
31/09:00am - SE 7 9 1008.0 - - - - - - - - -
31/08:30am - SE 9 11 1007.8 - - - - - - - - -
31/08:24am - SE 9 - 1007.7 - - - - - - - - -
31/08:00am - S 10 11 1007.6 - - - - - - - - -
31/07:30am - ESE 9 11 1007.4 - - - - - - - - -
31/07:24am - ESE 8 - 1007.2 - - - - - - - - -
31/07:00am - ESE 7 9 1007.3 - - - - - - - - -
31/06:30am - SSE 9 12 1006.9 - - - - - - - - -
31/06:24am - SSE 10 - 1006.8 - - - - - - - - -
31/06:00am - SSW 8 9 1006.6 - - - - - - - - -
31/05:30am - SE 8 9 1006.0 - - - - - - - - -
31/05:24am - SE 7 - 1005.8 - - - - - - - - -
31/05:00am - SE 6 8 1005.6 - - - - - - - - -
31/04:30am - SE 6 7 1005.8 - - - - - - - - -
31/04:24am - SE 6 - 1005.7 - - - - - - - - -
31/04:00am - SE 7 8 1005.4 - - - - - - - - -
31/03:30am - SE 7 9 1005.5 - - - - - - - - -
31/03:24am - SE 7 - 1005.5 - - - - - - - - -
31/03:00am - SE 7 9 1005.6 - - - - - - - - -
31/02:30am - ESE 9 10 1005.7 - - - - - - - - -
31/02:24am - ESE 9 - 1005.6 - - - - - - - - -
31/02:00am - ESE 8 11 1005.9 - - - - - - - - -
31/01:30am - ESE 9 11 1005.8 - - - - - - - - -
31/01:24am - ESE 9 - 1005.7 - - - - - - - - -
31/01:00am - SE 10 13 1006.0 - - - - - - - - -
31/12:30am - ESE 12 14 1006.2 - - - - - - - - -
31/12:24am - ESE 13 - 1006.1 - - - - - - - - -
31/12:00am - ESE 13 15 1006.2 - - - - - - - - -
 
Date/Time
EST
Temp

°C
Wind Pressure Rain
since 9am
mm
Weather Cloud Vis
km
Sea
Height
m
Swell
Dir
 
Speed
knots
Gust
knots
hPa Trend Height
m
Period
s
Dir
30/11:30pm - ESE 13 15 1006.7 - - - - - - - - -
30/11:24pm - ESE 13 - 1006.7 - - - - - - - - -
30/11:00pm - ESE 15 17 1007.1 - - - - - - - - -
30/10:30pm - ESE 14 16 1007.0 - - - - - - - - -
30/10:24pm - ESE 13 - 1006.9 - - - - - - - - -
30/10:00pm - ESE 12 15 1006.8 - - - - - - - - -
30/09:30pm - ESE 14 16 1006.6 - - - - - - - - -
30/09:24pm - ESE 14 - 1006.4 - - - - - - - - -
30/09:00pm - ESE 12 15 1006.3 - - - - - - - - -
30/08:30pm - ESE 11 13 1006.4 - - - - - - - - -
30/08:24pm - ESE 11 - 1006.3 - - - - - - - - -
30/08:00pm - ESE 12 14 1006.2 - - - - - - - - -
30/07:30pm - ESE 11 14 1005.9 - - - - - - - - -
30/07:24pm - ESE 11 - 1005.7 - - - - - - - - -
30/07:00pm - SE 11 14 1005.5 - - - - - - - - -
30/06:30pm - SE 10 12 1005.2 - - - - - - - - -
30/06:24pm - SE 10 - 1005.2 - - - - - - - - -
30/06:00pm - SE 10 12 1004.8 - - - - - - - - -
30/05:30pm - SSE 10 11 1004.4 - - - - - - - - -
30/05:24pm - SSE 10 - 1004.2 - - - - - - - - -
30/05:00pm - SSE 10 11 1004.2 - - - - - - - - -
30/04:30pm - SSE 10 11 1003.9 - - - - - - - - -
30/04:24pm - SSE 10 - 1003.7 - - - - - - - - -
30/04:00pm - SSE 10 11 1003.9 - - - - - - - - -
30/03:30pm - SE 10 13 1004.0 - - - - - - - - -
30/03:24pm - SE 9 - 1003.9 - - - - - - - - -
30/03:00pm - SE 10 11 1004.3 - - - - - - - - -
30/02:30pm - SSE 7 10 1004.5 - - - - - - - - -
30/02:24pm - SE 8 - 1004.5 - - - - - - - - -
30/02:00pm - ENE 8 9 1004.8 - - - - - - - - -
30/01:30pm - NE 10 12 1005.1 - - - - - - - - -
30/01:24pm - NE 9 - 1005.1 - - - - - - - - -
30/01:00pm - NNE 4 6 1005.5 - - - - - - - - -
30/12:30pm - NNE 6 7 1005.6 - - - - - - - - -
30/12:24pm - NNE 5 - 1005.5 - - - - - - - - -
30/12:00pm - NNE 5 6 1005.8 - - - - - - - - -
30/11:30am - NNE 5 6 1006.0 - - - - - - - - -
30/11:24am - NNE 5 - 1006.0 - - - - - - - - -
30/11:00am - NNE 5 6 1006.3 - - - - - - - - -
30/10:30am - NNE 2 4 1006.4 - - - - - - - - -
30/10:24am - NNE 3 - 1006.4 - - - - - - - - -
30/10:00am - CALM 0 0 1006.6 - - - - - - - - -
30/09:30am - NE 4 6 1006.6 - - - - - - - - -
30/09:24am - NE 5 - 1006.6 - - - - - - - - -
30/09:00am - NE 5 6 1006.7 - - - - - - - - -
30/08:30am - NE 6 7 1006.7 - - - - - - - - -
30/08:24am - NE 6 - 1006.5 - - - - - - - - -
30/08:00am - NE 7 8 1006.6 - - - - - - - - -
30/07:30am - NE 7 8 1006.3 - - - - - - - - -
30/07:24am - NE 7 - 1006.0 - - - - - - - - -
30/07:00am - NE 9 13 1005.8 - - - - - - - - -
30/06:30am - NNE 8 10 1005.3 - - - - - - - - -
30/06:24am - NNE 8 - 1005.2 - - - - - - - - -
30/06:00am - NNE 9 11 1005.1 - - - - - - - - -
30/05:30am - NNE 8 10 1004.7 - - - - - - - - -
30/05:24am - NE 8 - 1004.5 - - - - - - - - -
30/05:00am - ESE 11 13 1004.2 - - - - - - - - -
30/04:30am - ESE 11 13 1004.3 - - - - - - - - -
30/04:24am - ESE 11 - 1004.1 - - - - - - - - -
30/04:00am - ESE 12 14 1004.2 - - - - - - - - -
30/03:30am - ESE 12 14 1003.9 - - - - - - - - -
30/03:24am - ESE 13 - 1003.9 - - - - - - - - -
30/03:00am - ESE 15 17 1004.0 - - - - - - - - -
30/02:30am - ESE 15 17 1004.0 - - - - - - - - -
30/02:24am - ESE 15 - 1003.9 - - - - - - - - -
30/02:21am - ESE 15 18 1004.1 - - - - - - - - -
30/02:00am - CALM 0 3 1003.8 - - - - - - - - -
30/01:30am - ESE 12 16 1004.1 - - - - - - - - -
30/01:24am - ESE 15 - 1004.1 - - - - - - - - -
30/01:00am - ENE 8 13 1004.4 - - - - - - - - -

Other Formats:

Comma delimited format used in spreadsheet applications
http://www.bom.gov.au/fwo/IDQ60701/IDQ60701.94290.axf

JavaScript Object Notation format (JSON) in row-major order
http://www.bom.gov.au/fwo/IDQ60701/IDQ60701.94290.json